Airfield :
LOGIN :

Register | Disclaimer

   EN    FR    IT 

 










Legend :    VFR   Marginal VFR   IFR   Intensive IFR   Very Intensive IFR
Visi :
Ceiling :
>= 8 km
>= 3000ft
5 to 8 km
1000 to 3000 ft
1500m to 5 km
500 to 1000 ft
800 to 1500m
200 to 500 ft
< 800m
< 200 ft
Symbols :   Thunderstorms  Fog  Heavy snow  Heavy precipitations  Wind > 20 kt
SIGMETs :     Misc.  Thunderstorms  Icing  Turbulence  Mountain Waves  Volcanic Ashes







- Airport Elevation : 466 ft


LHPA - Pápa

CURRENT METAR :
  • 171815Z 19014KT CAVOK 08/03 Q1008 NOSIG RMK BLU

EXPIRED METARs :
  • 171745Z 18012KT CAVOK 08/03 Q1008 NOSIG RMK BLU
  • 171715Z 18012KT CAVOK 08/03 Q1008 NOSIG RMK BLU
  • 171645Z 21012KT CAVOK 09/03 Q1008 NOSIG RMK BLU
  • 171615Z 21010KT CAVOK 09/03 Q1008 NOSIG RMK BLU
  • 171545Z 22012KT 9999 FEW033 BKN083 11/03 Q1008 NOSIG RMK BLU

TAF TAF LHPA
Valid from the 17 at 18:00 until the 18 at 18:00 UTC


171715Z 1718/1818 22012KT CAVOK
TEMPO 1721/1806 8000 -RA BKN025 OVC060
BECMG 1800/1803 32008KT
PROB40
TEMPO 1803/1806 6000 -SNRA -SN SCT015 BKN030
TEMPO 1809/1813 31014KT
PROB30
TEMPO 1814/1818 6000 SHSN BKN040
No reported NOTAMs for that airfield.



MET'MAP, your aeronautical weather chart ! - Copyright ORBIFLY December 2007 - Disclaimer

ORBIFLY MET'MAP TEAM :

Programming & Development : Alexandra Zaïnal
Concept & Development : Baudouin d'Aumeries
Co-Development & Prog : Marc-Olivier Méhu
Technical & hardware support : Manuel Goepfert

Contact : metmap@orbifly.com




SOURCES & CREDITS :

   NOAA